sensor_id;sensor_type;location;lat;lon;timestamp;temperature;humidity
67817;DHT22;54614;47.576;7.524;2022-09-24T00:01:26;25.40;58.10
67817;DHT22;54614;47.576;7.524;2022-09-24T00:03:57;25.40;58.10
67817;DHT22;54614;47.576;7.524;2022-09-24T00:06:26;25.40;58.10
67817;DHT22;54614;47.576;7.524;2022-09-24T00:08:54;25.40;58.10
67817;DHT22;54614;47.576;7.524;2022-09-24T00:11:23;25.40;58.20
67817;DHT22;54614;47.576;7.524;2022-09-24T00:13:51;25.40;58.10
67817;DHT22;54614;47.576;7.524;2022-09-24T00:16:19;25.40;58.20
67817;DHT22;54614;47.576;7.524;2022-09-24T00:18:46;25.40;58.10
67817;DHT22;54614;47.576;7.524;2022-09-24T00:21:17;25.40;58.10
67817;DHT22;54614;47.576;7.524;2022-09-24T00:23:43;25.40;58.10
67817;DHT22;54614;47.576;7.524;2022-09-24T00:26:13;25.40;58.20
67817;DHT22;54614;47.576;7.524;2022-09-24T00:28:58;25.40;58.10
67817;DHT22;54614;47.576;7.524;2022-09-24T00:31:25;25.40;58.20
67817;DHT22;54614;47.576;7.524;2022-09-24T00:33:52;25.40;58.20
67817;DHT22;54614;47.576;7.524;2022-09-24T00:36:20;25.40;58.20
67817;DHT22;54614;47.576;7.524;2022-09-24T00:38:51;25.40;58.20
67817;DHT22;54614;47.576;7.524;2022-09-24T00:41:20;25.40;58.20
67817;DHT22;54614;47.576;7.524;2022-09-24T00:43:49;25.40;58.20
67817;DHT22;54614;47.576;7.524;2022-09-24T00:46:42;25.40;58.20
67817;DHT22;54614;47.576;7.524;2022-09-24T00:49:13;25.50;58.30
67817;DHT22;54614;47.576;7.524;2022-09-24T00:51:44;25.40;58.20
67817;DHT22;54614;47.576;7.524;2022-09-24T00:54:18;25.40;58.20
67817;DHT22;54614;47.576;7.524;2022-09-24T00:56:51;25.40;58.30
67817;DHT22;54614;47.576;7.524;2022-09-24T00:59:21;25.40;58.20
67817;DHT22;54614;47.576;7.524;2022-09-24T01:01:50;25.30;58.20
67817;DHT22;54614;47.576;7.524;2022-09-24T01:04:23;25.30;58.30
67817;DHT22;54614;47.576;7.524;2022-09-24T01:06:51;25.30;58.20
67817;DHT22;54614;47.576;7.524;2022-09-24T01:09:19;25.30;58.30
67817;DHT22;54614;47.576;7.524;2022-09-24T01:12:22;25.40;58.30
67817;DHT22;54614;47.576;7.524;2022-09-24T01:15:20;25.40;58.40
67817;DHT22;54614;47.576;7.524;2022-09-24T01:18:05;25.30;58.30
67817;DHT22;54614;47.576;7.524;2022-09-24T01:20:47;25.30;58.30
67817;DHT22;54614;47.576;7.524;2022-09-24T01:23:54;25.30;58.40
67817;DHT22;54614;47.576;7.524;2022-09-24T01:30:06;25.30;58.40
67817;DHT22;54614;47.576;7.524;2022-09-24T01:32:54;25.30;58.40
67817;DHT22;54614;47.576;7.524;2022-09-24T01:35:30;25.30;58.40
67817;DHT22;54614;47.576;7.524;2022-09-24T01:38:17;25.40;58.40
67817;DHT22;54614;47.576;7.524;2022-09-24T01:40:47;25.30;58.40
67817;DHT22;54614;47.576;7.524;2022-09-24T01:43:21;25.30;58.40
67817;DHT22;54614;47.576;7.524;2022-09-24T01:45:50;25.30;58.40
67817;DHT22;54614;47.576;7.524;2022-09-24T01:48:17;25.30;58.40
67817;DHT22;54614;47.576;7.524;2022-09-24T01:50:53;25.30;58.50
67817;DHT22;54614;47.576;7.524;2022-09-24T01:53:33;25.30;58.50
67817;DHT22;54614;47.576;7.524;2022-09-24T01:56:09;25.30;58.50
67817;DHT22;54614;47.576;7.524;2022-09-24T01:58:52;25.30;58.50
67817;DHT22;54614;47.576;7.524;2022-09-24T02:01:33;25.30;58.50
67817;DHT22;54614;47.576;7.524;2022-09-24T02:04:12;25.30;58.50
67817;DHT22;54614;47.576;7.524;2022-09-24T02:06:57;25.30;58.50
67817;DHT22;54614;47.576;7.524;2022-09-24T02:09:33;25.30;58.50
67817;DHT22;54614;47.576;7.524;2022-09-24T02:14:54;25.30;58.50
67817;DHT22;54614;47.576;7.524;2022-09-24T02:17:29;25.30;58.50
67817;DHT22;54614;47.576;7.524;2022-09-24T02:19:59;25.30;58.50
67817;DHT22;54614;47.576;7.524;2022-09-24T02:22:28;25.30;58.50
67817;DHT22;54614;47.576;7.524;2022-09-24T02:24:57;25.30;58.50
67817;DHT22;54614;47.576;7.524;2022-09-24T02:27:27;25.30;58.50
67817;DHT22;54614;47.576;7.524;2022-09-24T02:29:57;25.30;58.50
67817;DHT22;54614;47.576;7.524;2022-09-24T02:32:27;25.30;58.50
67817;DHT22;54614;47.576;7.524;2022-09-24T02:34:58;25.30;58.50
67817;DHT22;54614;47.576;7.524;2022-09-24T02:37:27;25.30;58.50
67817;DHT22;54614;47.576;7.524;2022-09-24T02:39:54;25.30;59.20
67817;DHT22;54614;47.576;7.524;2022-09-24T02:42:21;25.20;58.50
67817;DHT22;54614;47.576;7.524;2022-09-24T02:44:47;25.20;58.50
67817;DHT22;54614;47.576;7.524;2022-09-24T02:47:14;25.20;58.50
67817;DHT22;54614;47.576;7.524;2022-09-24T02:49:39;25.20;58.50
67817;DHT22;54614;47.576;7.524;2022-09-24T02:52:05;25.20;58.50
67817;DHT22;54614;47.576;7.524;2022-09-24T02:54:31;25.20;58.50
67817;DHT22;54614;47.576;7.524;2022-09-24T02:56:57;25.30;58.50
67817;DHT22;54614;47.576;7.524;2022-09-24T02:59:23;25.20;58.50
67817;DHT22;54614;47.576;7.524;2022-09-24T03:01:49;25.30;58.60
67817;DHT22;54614;47.576;7.524;2022-09-24T03:04:15;25.30;58.50
67817;DHT22;54614;47.576;7.524;2022-09-24T03:06:42;25.30;58.60
67817;DHT22;54614;47.576;7.524;2022-09-24T03:09:10;25.20;58.50
67817;DHT22;54614;47.576;7.524;2022-09-24T03:11:37;25.20;58.60
67817;DHT22;54614;47.576;7.524;2022-09-24T03:14:03;25.20;58.50
67817;DHT22;54614;47.576;7.524;2022-09-24T03:16:29;25.20;58.50
67817;DHT22;54614;47.576;7.524;2022-09-24T03:18:55;25.30;58.60
67817;DHT22;54614;47.576;7.524;2022-09-24T03:21:21;25.30;58.60
67817;DHT22;54614;47.576;7.524;2022-09-24T03:23:48;25.30;58.60
67817;DHT22;54614;47.576;7.524;2022-09-24T03:26:14;25.20;58.50
67817;DHT22;54614;47.576;7.524;2022-09-24T03:28:42;25.30;58.60
67817;DHT22;54614;47.576;7.524;2022-09-24T03:31:08;25.30;58.50
67817;DHT22;54614;47.576;7.524;2022-09-24T03:34:00;25.30;58.60
67817;DHT22;54614;47.576;7.524;2022-09-24T03:36:26;25.30;58.50
67817;DHT22;54614;47.576;7.524;2022-09-24T03:38:54;25.30;58.50
67817;DHT22;54614;47.576;7.524;2022-09-24T03:41:24;25.30;58.50
67817;DHT22;54614;47.576;7.524;2022-09-24T03:43:52;25.30;58.50
67817;DHT22;54614;47.576;7.524;2022-09-24T03:46:18;25.30;58.50
67817;DHT22;54614;47.576;7.524;2022-09-24T03:48:44;25.30;58.50
67817;DHT22;54614;47.576;7.524;2022-09-24T03:51:16;25.30;58.50
67817;DHT22;54614;47.576;7.524;2022-09-24T03:53:45;25.30;58.50
67817;DHT22;54614;47.576;7.524;2022-09-24T03:56:11;25.20;58.40
67817;DHT22;54614;47.576;7.524;2022-09-24T03:58:38;25.20;58.50
67817;DHT22;54614;47.576;7.524;2022-09-24T04:01:05;25.20;58.50
67817;DHT22;54614;47.576;7.524;2022-09-24T04:03:32;25.30;58.60
67817;DHT22;54614;47.576;7.524;2022-09-24T04:05:59;25.20;58.50
67817;DHT22;54614;47.576;7.524;2022-09-24T04:08:25;25.20;58.50
67817;DHT22;54614;47.576;7.524;2022-09-24T04:10:51;25.20;58.50
67817;DHT22;54614;47.576;7.524;2022-09-24T04:13:18;25.20;58.50
67817;DHT22;54614;47.576;7.524;2022-09-24T04:15:44;25.20;58.60
67817;DHT22;54614;47.576;7.524;2022-09-24T04:18:11;25.20;58.60
67817;DHT22;54614;47.576;7.524;2022-09-24T04:20:37;25.20;58.60
67817;DHT22;54614;47.576;7.524;2022-09-24T04:23:03;25.20;58.50
67817;DHT22;54614;47.576;7.524;2022-09-24T04:25:30;25.20;58.60
67817;DHT22;54614;47.576;7.524;2022-09-24T04:28:01;25.20;58.50
67817;DHT22;54614;47.576;7.524;2022-09-24T04:30:30;25.30;59.00
67817;DHT22;54614;47.576;7.524;2022-09-24T04:32:57;25.30;59.20
67817;DHT22;54614;47.576;7.524;2022-09-24T04:35:26;25.30;58.90
67817;DHT22;54614;47.576;7.524;2022-09-24T04:37:54;25.30;59.00
67817;DHT22;54614;47.576;7.524;2022-09-24T04:40:21;25.30;59.30
67817;DHT22;54614;47.576;7.524;2022-09-24T04:42:47;25.30;59.10
67817;DHT22;54614;47.576;7.524;2022-09-24T04:45:14;25.30;58.80
67817;DHT22;54614;47.576;7.524;2022-09-24T04:47:46;25.30;58.80
67817;DHT22;54614;47.576;7.524;2022-09-24T04:50:17;25.30;58.70
67817;DHT22;54614;47.576;7.524;2022-09-24T04:52:44;25.30;58.80
67817;DHT22;54614;47.576;7.524;2022-09-24T04:55:10;25.30;58.70
67817;DHT22;54614;47.576;7.524;2022-09-24T04:57:36;25.30;58.70
67817;DHT22;54614;47.576;7.524;2022-09-24T05:00:05;25.30;58.70
67817;DHT22;54614;47.576;7.524;2022-09-24T05:02:35;25.30;58.70
67817;DHT22;54614;47.576;7.524;2022-09-24T05:05:01;25.30;58.70
67817;DHT22;54614;47.576;7.524;2022-09-24T05:07:27;25.20;58.60
67817;DHT22;54614;47.576;7.524;2022-09-24T05:09:53;25.30;58.60
67817;DHT22;54614;47.576;7.524;2022-09-24T05:12:19;25.30;58.50
67817;DHT22;54614;47.576;7.524;2022-09-24T05:14:45;25.30;58.50
67817;DHT22;54614;47.576;7.524;2022-09-24T05:17:15;25.30;58.60
67817;DHT22;54614;47.576;7.524;2022-09-24T05:19:41;25.40;58.60
67817;DHT22;54614;47.576;7.524;2022-09-24T05:22:07;25.30;58.60
67817;DHT22;54614;47.576;7.524;2022-09-24T05:24:36;25.30;58.50
67817;DHT22;54614;47.576;7.524;2022-09-24T05:27:02;25.30;58.50
67817;DHT22;54614;47.576;7.524;2022-09-24T05:29:40;25.30;58.50
67817;DHT22;54614;47.576;7.524;2022-09-24T05:32:12;25.50;58.60
67817;DHT22;54614;47.576;7.524;2022-09-24T05:34:42;25.40;58.40
67817;DHT22;54614;47.576;7.524;2022-09-24T05:37:09;25.30;58.50
67817;DHT22;54614;47.576;7.524;2022-09-24T05:39:36;25.30;58.70
67817;DHT22;54614;47.576;7.524;2022-09-24T05:42:02;25.30;58.70
67817;DHT22;54614;47.576;7.524;2022-09-24T05:44:31;25.20;58.60
67817;DHT22;54614;47.576;7.524;2022-09-24T05:46:57;25.30;58.70
67817;DHT22;54614;47.576;7.524;2022-09-24T05:49:24;25.20;58.60
67817;DHT22;54614;47.576;7.524;2022-09-24T05:51:50;25.30;58.70
67817;DHT22;54614;47.576;7.524;2022-09-24T05:54:19;25.20;58.50
67817;DHT22;54614;47.576;7.524;2022-09-24T05:56:48;25.30;58.60
67817;DHT22;54614;47.576;7.524;2022-09-24T05:59:14;25.20;58.70
67817;DHT22;54614;47.576;7.524;2022-09-24T06:01:40;25.00;59.50
67817;DHT22;54614;47.576;7.524;2022-09-24T06:04:06;25.00;59.50
67817;DHT22;54614;47.576;7.524;2022-09-24T06:06:32;25.00;59.60
67817;DHT22;54614;47.576;7.524;2022-09-24T06:09:02;25.00;60.50
67817;DHT22;54614;47.576;7.524;2022-09-24T06:11:30;25.00;59.80
67817;DHT22;54614;47.576;7.524;2022-09-24T06:14:02;25.20;59.70
67817;DHT22;54614;47.576;7.524;2022-09-24T06:16:31;25.20;59.60
67817;DHT22;54614;47.576;7.524;2022-09-24T06:18:58;25.10;59.70
67817;DHT22;54614;47.576;7.524;2022-09-24T06:21:24;25.00;60.30
67817;DHT22;54614;47.576;7.524;2022-09-24T06:23:50;25.00;60.20
67817;DHT22;54614;47.576;7.524;2022-09-24T06:26:16;25.10;59.90
67817;DHT22;54614;47.576;7.524;2022-09-24T06:28:43;25.20;59.50
67817;DHT22;54614;47.576;7.524;2022-09-24T06:31:09;25.30;59.30
67817;DHT22;54614;47.576;7.524;2022-09-24T06:33:37;25.30;59.20
67817;DHT22;54614;47.576;7.524;2022-09-24T06:36:03;25.30;59.10
67817;DHT22;54614;47.576;7.524;2022-09-24T06:38:30;25.30;58.90
67817;DHT22;54614;47.576;7.524;2022-09-24T06:41:00;25.30;58.90
67817;DHT22;54614;47.576;7.524;2022-09-24T06:43:28;25.30;59.00
67817;DHT22;54614;47.576;7.524;2022-09-24T06:45:56;25.30;58.90
67817;DHT22;54614;47.576;7.524;2022-09-24T06:48:23;25.30;59.10
67817;DHT22;54614;47.576;7.524;2022-09-24T06:50:51;25.30;59.00
67817;DHT22;54614;47.576;7.524;2022-09-24T06:53:18;25.30;59.00
67817;DHT22;54614;47.576;7.524;2022-09-24T06:55:44;25.30;59.00
67817;DHT22;54614;47.576;7.524;2022-09-24T06:58:12;25.20;60.00
67817;DHT22;54614;47.576;7.524;2022-09-24T07:00:40;25.10;60.40
67817;DHT22;54614;47.576;7.524;2022-09-24T07:03:13;25.00;60.50
67817;DHT22;54614;47.576;7.524;2022-09-24T07:05:40;25.00;60.70
67817;DHT22;54614;47.576;7.524;2022-09-24T07:08:07;25.00;60.90
67817;DHT22;54614;47.576;7.524;2022-09-24T07:10:32;25.00;61.10
67817;DHT22;54614;47.576;7.524;2022-09-24T07:12:58;24.90;60.90
67817;DHT22;54614;47.576;7.524;2022-09-24T07:15:24;24.90;61.10
67817;DHT22;54614;47.576;7.524;2022-09-24T07:17:55;24.90;61.10
67817;DHT22;54614;47.576;7.524;2022-09-24T07:20:21;24.90;61.00
67817;DHT22;54614;47.576;7.524;2022-09-24T07:22:48;25.00;60.90
67817;DHT22;54614;47.576;7.524;2022-09-24T07:25:14;25.10;60.50
67817;DHT22;54614;47.576;7.524;2022-09-24T07:27:39;25.10;60.90
67817;DHT22;54614;47.576;7.524;2022-09-24T07:30:06;25.00;61.00
67817;DHT22;54614;47.576;7.524;2022-09-24T07:32:34;25.00;61.10
67817;DHT22;54614;47.576;7.524;2022-09-24T07:35:00;25.00;61.10
67817;DHT22;54614;47.576;7.524;2022-09-24T07:37:26;25.00;61.10
67817;DHT22;54614;47.576;7.524;2022-09-24T07:39:52;25.00;61.20
67817;DHT22;54614;47.576;7.524;2022-09-24T07:42:18;25.10;60.90
67817;DHT22;54614;47.576;7.524;2022-09-24T07:44:44;25.20;60.70
67817;DHT22;54614;47.576;7.524;2022-09-24T07:47:12;25.30;59.80
67817;DHT22;54614;47.576;7.524;2022-09-24T07:49:38;25.40;59.50
67817;DHT22;54614;47.576;7.524;2022-09-24T07:52:04;25.50;59.20
67817;DHT22;54614;47.576;7.524;2022-09-24T07:54:30;25.30;59.80
67817;DHT22;54614;47.576;7.524;2022-09-24T07:56:56;25.20;61.00
67817;DHT22;54614;47.576;7.524;2022-09-24T07:59:22;25.10;60.40
67817;DHT22;54614;47.576;7.524;2022-09-24T08:01:48;25.00;60.50
67817;DHT22;54614;47.576;7.524;2022-09-24T08:04:13;25.10;60.00
67817;DHT22;54614;47.576;7.524;2022-09-24T08:06:39;25.20;59.60
67817;DHT22;54614;47.576;7.524;2022-09-24T08:09:05;25.30;59.50
67817;DHT22;54614;47.576;7.524;2022-09-24T08:11:35;25.30;59.30
67817;DHT22;54614;47.576;7.524;2022-09-24T08:14:01;25.30;59.20
67817;DHT22;54614;47.576;7.524;2022-09-24T08:16:27;25.30;59.20
67817;DHT22;54614;47.576;7.524;2022-09-24T08:18:53;25.30;59.20
67817;DHT22;54614;47.576;7.524;2022-09-24T08:21:19;25.40;59.20
67817;DHT22;54614;47.576;7.524;2022-09-24T08:23:46;25.30;59.20
67817;DHT22;54614;47.576;7.524;2022-09-24T08:26:13;25.40;59.20
67817;DHT22;54614;47.576;7.524;2022-09-24T08:28:40;25.30;59.10
67817;DHT22;54614;47.576;7.524;2022-09-24T08:31:08;25.30;59.10
67817;DHT22;54614;47.576;7.524;2022-09-24T08:33:37;25.30;59.10
67817;DHT22;54614;47.576;7.524;2022-09-24T08:36:06;25.30;59.10
67817;DHT22;54614;47.576;7.524;2022-09-24T08:38:34;25.30;59.20
67817;DHT22;54614;47.576;7.524;2022-09-24T08:41:19;25.40;59.80
67817;DHT22;54614;47.576;7.524;2022-09-24T08:47:19;25.40;59.10
67817;DHT22;54614;47.576;7.524;2022-09-24T08:55:19;25.30;59.30
67817;DHT22;54614;47.576;7.524;2022-09-24T09:00:52;25.30;59.50
67817;DHT22;54614;47.576;7.524;2022-09-24T09:03:36;25.30;59.80
67817;DHT22;54614;47.576;7.524;2022-09-24T09:06:15;25.30;59.80
67817;DHT22;54614;47.576;7.524;2022-09-24T09:09:15;25.30;59.80
67817;DHT22;54614;47.576;7.524;2022-09-24T09:11:56;25.20;59.70
67817;DHT22;54614;47.576;7.524;2022-09-24T09:15:28;25.30;59.80
67817;DHT22;54614;47.576;7.524;2022-09-24T09:20:17;25.30;59.80
67817;DHT22;54614;47.576;7.524;2022-09-24T09:22:50;25.20;60.10
67817;DHT22;54614;47.576;7.524;2022-09-24T09:28:00;25.00;60.70
67817;DHT22;54614;47.576;7.524;2022-09-24T09:45:00;25.20;60.30
67817;DHT22;54614;47.576;7.524;2022-09-24T09:47:56;25.30;60.00
67817;DHT22;54614;47.576;7.524;2022-09-24T09:53:22;25.30;59.70
67817;DHT22;54614;47.576;7.524;2022-09-24T09:56:05;25.20;60.60
67817;DHT22;54614;47.576;7.524;2022-09-24T09:58:38;25.20;60.60
67817;DHT22;54614;47.576;7.524;2022-09-24T10:01:11;25.20;60.70
67817;DHT22;54614;47.576;7.524;2022-09-24T10:06:24;25.10;61.10
67817;DHT22;54614;47.576;7.524;2022-09-24T10:08:52;25.20;60.90
67817;DHT22;54614;47.576;7.524;2022-09-24T10:11:20;25.20;60.50
67817;DHT22;54614;47.576;7.524;2022-09-24T10:13:49;25.20;60.30
67817;DHT22;54614;47.576;7.524;2022-09-24T10:16:26;25.20;60.40
67817;DHT22;54614;47.576;7.524;2022-09-24T10:18:52;25.20;60.40
67817;DHT22;54614;47.576;7.524;2022-09-24T10:21:44;25.20;60.70
67817;DHT22;54614;47.576;7.524;2022-09-24T10:24:23;25.10;61.70
67817;DHT22;54614;47.576;7.524;2022-09-24T10:26:52;25.00;61.90
67817;DHT22;54614;47.576;7.524;2022-09-24T10:29:29;25.00;61.70
67817;DHT22;54614;47.576;7.524;2022-09-24T10:32:18;25.00;61.70
67817;DHT22;54614;47.576;7.524;2022-09-24T10:35:15;25.00;61.80
67817;DHT22;54614;47.576;7.524;2022-09-24T10:37:56;25.00;61.60
67817;DHT22;54614;47.576;7.524;2022-09-24T10:40:37;25.00;61.70
67817;DHT22;54614;47.576;7.524;2022-09-24T10:43:05;25.00;61.90
67817;DHT22;54614;47.576;7.524;2022-09-24T11:00:57;25.10;61.50
67817;DHT22;54614;47.576;7.524;2022-09-24T11:06:39;25.20;61.30
67817;DHT22;54614;47.576;7.524;2022-09-24T11:20:41;25.40;60.30
67817;DHT22;54614;47.576;7.524;2022-09-24T11:37:59;25.20;62.40
67817;DHT22;54614;47.576;7.524;2022-09-24T11:40:54;25.30;62.00
67817;DHT22;54614;47.576;7.524;2022-09-24T11:58:02;25.30;62.20
67817;DHT22;54614;47.576;7.524;2022-09-24T12:04:02;25.40;61.80
67817;DHT22;54614;47.576;7.524;2022-09-24T12:07:00;25.40;61.40
67817;DHT22;54614;47.576;7.524;2022-09-24T12:10:01;25.30;62.20
67817;DHT22;54614;47.576;7.524;2022-09-24T12:12:51;25.40;61.80
67817;DHT22;54614;47.576;7.524;2022-09-24T12:15:25;25.40;61.50
67817;DHT22;54614;47.576;7.524;2022-09-24T12:17:56;25.50;61.50
67817;DHT22;54614;47.576;7.524;2022-09-24T12:20:31;25.50;61.30
67817;DHT22;54614;47.576;7.524;2022-09-24T12:23:12;25.60;61.00
67817;DHT22;54614;47.576;7.524;2022-09-24T12:25:46;25.60;60.60
67817;DHT22;54614;47.576;7.524;2022-09-24T12:28:19;25.60;60.60
67817;DHT22;54614;47.576;7.524;2022-09-24T12:31:19;25.60;60.50
67817;DHT22;54614;47.576;7.524;2022-09-24T12:34:39;25.70;60.50
67817;DHT22;54614;47.576;7.524;2022-09-24T12:37:19;25.60;60.50
67817;DHT22;54614;47.576;7.524;2022-09-24T12:42:47;25.60;60.50
67817;DHT22;54614;47.576;7.524;2022-09-24T12:45:20;25.60;60.40
67817;DHT22;54614;47.576;7.524;2022-09-24T12:47:53;25.60;60.40
67817;DHT22;54614;47.576;7.524;2022-09-24T12:50:25;25.60;60.40
67817;DHT22;54614;47.576;7.524;2022-09-24T12:52:54;25.60;60.40
67817;DHT22;54614;47.576;7.524;2022-09-24T13:01:24;25.60;60.30
67817;DHT22;54614;47.576;7.524;2022-09-24T13:06:51;25.60;60.30
67817;DHT22;54614;47.576;7.524;2022-09-24T13:09:34;25.60;60.20
67817;DHT22;54614;47.576;7.524;2022-09-24T13:12:17;25.60;60.30
67817;DHT22;54614;47.576;7.524;2022-09-24T13:15:55;25.50;60.20
67817;DHT22;54614;47.576;7.524;2022-09-24T13:20:32;25.50;60.20
67817;DHT22;54614;47.576;7.524;2022-09-24T13:25:58;25.50;60.30
67817;DHT22;54614;47.576;7.524;2022-09-24T13:28:56;25.50;60.20
67817;DHT22;54614;47.576;7.524;2022-09-24T13:36:39;25.50;60.10
67817;DHT22;54614;47.576;7.524;2022-09-24T13:39:21;25.50;60.10
67817;DHT22;54614;47.576;7.524;2022-09-24T13:42:15;25.50;60.10
67817;DHT22;54614;47.576;7.524;2022-09-24T13:45:15;25.50;60.10
67817;DHT22;54614;47.576;7.524;2022-09-24T13:47:57;25.50;60.10
67817;DHT22;54614;47.576;7.524;2022-09-24T13:56:02;25.50;59.90
67817;DHT22;54614;47.576;7.524;2022-09-24T13:58:35;25.50;60.10
67817;DHT22;54614;47.576;7.524;2022-09-24T14:03:40;25.50;60.00
67817;DHT22;54614;47.576;7.524;2022-09-24T14:06:16;25.40;60.00
67817;DHT22;54614;47.576;7.524;2022-09-24T14:08:47;25.50;60.00
67817;DHT22;54614;47.576;7.524;2022-09-24T14:11:20;25.40;60.00
67817;DHT22;54614;47.576;7.524;2022-09-24T14:13:51;25.40;60.00
67817;DHT22;54614;47.576;7.524;2022-09-24T14:16:25;25.50;60.10
67817;DHT22;54614;47.576;7.524;2022-09-24T14:19:01;25.40;60.20
67817;DHT22;54614;47.576;7.524;2022-09-24T14:21:43;25.50;60.20
67817;DHT22;54614;47.576;7.524;2022-09-24T14:26:54;25.40;60.70
67817;DHT22;54614;47.576;7.524;2022-09-24T14:32:34;25.40;60.60
67817;DHT22;54614;47.576;7.524;2022-09-24T14:41:31;25.50;60.60
67817;DHT22;54614;47.576;7.524;2022-09-24T14:44:05;25.50;60.60
67817;DHT22;54614;47.576;7.524;2022-09-24T14:46:49;25.40;60.70
67817;DHT22;54614;47.576;7.524;2022-09-24T14:55:01;25.30;61.20
67817;DHT22;54614;47.576;7.524;2022-09-24T14:57:49;25.30;61.20
67817;DHT22;54614;47.576;7.524;2022-09-24T15:00:27;25.30;61.40
67817;DHT22;54614;47.576;7.524;2022-09-24T15:03:15;25.40;61.20
67817;DHT22;54614;47.576;7.524;2022-09-24T15:05:45;25.50;60.80
67817;DHT22;54614;47.576;7.524;2022-09-24T15:10:57;25.60;60.30
67817;DHT22;54614;47.576;7.524;2022-09-24T15:13:29;25.60;60.30
67817;DHT22;54614;47.576;7.524;2022-09-24T15:19:14;25.50;60.30
67817;DHT22;54614;47.576;7.524;2022-09-24T15:21:50;25.50;60.20
67817;DHT22;54614;47.576;7.524;2022-09-24T15:24:19;25.50;60.40
67817;DHT22;54614;47.576;7.524;2022-09-24T15:26:56;25.50;60.60
67817;DHT22;54614;47.576;7.524;2022-09-24T15:29:28;25.50;60.40
67817;DHT22;54614;47.576;7.524;2022-09-24T15:31:54;25.50;60.80
67817;DHT22;54614;47.576;7.524;2022-09-24T15:34:22;25.50;60.70
67817;DHT22;54614;47.576;7.524;2022-09-24T15:36:52;25.50;60.70
67817;DHT22;54614;47.576;7.524;2022-09-24T15:39:21;25.50;60.70
67817;DHT22;54614;47.576;7.524;2022-09-24T15:41:50;25.50;60.60
67817;DHT22;54614;47.576;7.524;2022-09-24T15:44:21;25.50;60.60
67817;DHT22;54614;47.576;7.524;2022-09-24T15:46:50;25.50;60.50
67817;DHT22;54614;47.576;7.524;2022-09-24T15:49:17;25.50;60.40
67817;DHT22;54614;47.576;7.524;2022-09-24T15:52:00;25.50;60.60
67817;DHT22;54614;47.576;7.524;2022-09-24T15:54:30;25.60;60.60
67817;DHT22;54614;47.576;7.524;2022-09-24T15:56:56;25.50;60.30
67817;DHT22;54614;47.576;7.524;2022-09-24T15:59:23;25.50;60.50
67817;DHT22;54614;47.576;7.524;2022-09-24T16:01:51;25.50;60.40
67817;DHT22;54614;47.576;7.524;2022-09-24T16:04:19;25.60;60.50
67817;DHT22;54614;47.576;7.524;2022-09-24T16:06:45;25.50;60.50
67817;DHT22;54614;47.576;7.524;2022-09-24T16:09:11;25.60;60.40
67817;DHT22;54614;47.576;7.524;2022-09-24T16:11:37;25.60;60.40
67817;DHT22;54614;47.576;7.524;2022-09-24T16:14:03;25.60;60.40
67817;DHT22;54614;47.576;7.524;2022-09-24T16:16:30;25.60;60.30
67817;DHT22;54614;47.576;7.524;2022-09-24T16:18:56;25.70;60.40
67817;DHT22;54614;47.576;7.524;2022-09-24T16:21:21;25.70;60.30
67817;DHT22;54614;47.576;7.524;2022-09-24T16:23:55;25.70;60.40
67817;DHT22;54614;47.576;7.524;2022-09-24T16:26:21;25.60;61.10
67817;DHT22;54614;47.576;7.524;2022-09-24T16:28:50;25.60;60.40
67817;DHT22;54614;47.576;7.524;2022-09-24T16:31:17;25.60;60.50
67817;DHT22;54614;47.576;7.524;2022-09-24T16:33:44;25.60;60.50
67817;DHT22;54614;47.576;7.524;2022-09-24T16:36:10;25.60;61.20
67817;DHT22;54614;47.576;7.524;2022-09-24T16:38:37;25.60;60.40
67817;DHT22;54614;47.576;7.524;2022-09-24T16:41:05;25.60;60.40
67817;DHT22;54614;47.576;7.524;2022-09-24T16:43:32;25.60;60.40
67817;DHT22;54614;47.576;7.524;2022-09-24T16:46:03;25.50;60.60
67817;DHT22;54614;47.576;7.524;2022-09-24T16:48:30;25.60;60.60
67817;DHT22;54614;47.576;7.524;2022-09-24T16:51:03;25.60;60.60
67817;DHT22;54614;47.576;7.524;2022-09-24T16:53:31;25.60;60.40
67817;DHT22;54614;47.576;7.524;2022-09-24T16:56:04;25.50;60.70
67817;DHT22;54614;47.576;7.524;2022-09-24T16:58:33;25.50;60.50
67817;DHT22;54614;47.576;7.524;2022-09-24T17:01:03;25.60;60.40
67817;DHT22;54614;47.576;7.524;2022-09-24T17:03:30;25.50;60.50
67817;DHT22;54614;47.576;7.524;2022-09-24T17:05:57;25.60;60.60
67817;DHT22;54614;47.576;7.524;2022-09-24T17:08:22;25.80;60.60
67817;DHT22;54614;47.576;7.524;2022-09-24T17:11:08;25.70;60.60
67817;DHT22;54614;47.576;7.524;2022-09-24T17:13:34;25.80;60.90
67817;DHT22;54614;47.576;7.524;2022-09-24T17:16:00;25.80;60.50
67817;DHT22;54614;47.576;7.524;2022-09-24T17:18:26;25.80;60.60
67817;DHT22;54614;47.576;7.524;2022-09-24T17:21:10;25.90;61.20
67817;DHT22;54614;47.576;7.524;2022-09-24T17:23:37;25.80;60.80
67817;DHT22;54614;47.576;7.524;2022-09-24T17:28:39;25.70;61.10
67817;DHT22;54614;47.576;7.524;2022-09-24T17:31:08;25.70;61.00
67817;DHT22;54614;47.576;7.524;2022-09-24T17:33:36;25.70;61.00
67817;DHT22;54614;47.576;7.524;2022-09-24T17:36:04;25.90;60.70
67817;DHT22;54614;47.576;7.524;2022-09-24T17:38:32;25.80;60.90
67817;DHT22;54614;47.576;7.524;2022-09-24T17:41:00;25.90;60.10
67817;DHT22;54614;47.576;7.524;2022-09-24T17:43:31;25.90;60.10
67817;DHT22;54614;47.576;7.524;2022-09-24T17:48:29;25.80;60.40
67817;DHT22;54614;47.576;7.524;2022-09-24T17:51:06;25.80;60.50
67817;DHT22;54614;47.576;7.524;2022-09-24T17:53:40;25.90;60.50
67817;DHT22;54614;47.576;7.524;2022-09-24T17:56:09;25.90;60.40
67817;DHT22;54614;47.576;7.524;2022-09-24T17:58:38;25.90;60.30
67817;DHT22;54614;47.576;7.524;2022-09-24T18:01:08;25.80;60.40
67817;DHT22;54614;47.576;7.524;2022-09-24T18:03:46;25.80;60.70
67817;DHT22;54614;47.576;7.524;2022-09-24T18:06:16;25.70;60.70
67817;DHT22;54614;47.576;7.524;2022-09-24T18:08:43;25.70;60.70
67817;DHT22;54614;47.576;7.524;2022-09-24T18:11:18;25.70;60.40
67817;DHT22;54614;47.576;7.524;2022-09-24T18:13:51;25.80;60.20
67817;DHT22;54614;47.576;7.524;2022-09-24T18:16:21;25.80;60.30
67817;DHT22;54614;47.576;7.524;2022-09-24T18:18:48;25.70;60.50
67817;DHT22;54614;47.576;7.524;2022-09-24T18:21:18;25.70;60.60
67817;DHT22;54614;47.576;7.524;2022-09-24T18:23:46;25.70;60.50
67817;DHT22;54614;47.576;7.524;2022-09-24T18:26:17;25.60;60.30
67817;DHT22;54614;47.576;7.524;2022-09-24T18:31:16;25.60;60.50
67817;DHT22;54614;47.576;7.524;2022-09-24T18:33:44;25.60;60.50
67817;DHT22;54614;47.576;7.524;2022-09-24T18:36:15;25.60;60.50
67817;DHT22;54614;47.576;7.524;2022-09-24T18:38:44;25.50;60.30
67817;DHT22;54614;47.576;7.524;2022-09-24T18:41:18;25.50;60.30
67817;DHT22;54614;47.576;7.524;2022-09-24T18:43:52;25.70;60.30
67817;DHT22;54614;47.576;7.524;2022-09-24T18:46:21;25.60;60.30